Bunnik, Netherlands
Current Conditions -  °F | °C
As of 11:25 PM on Wednesday 22 Oct 2014 (Local Time) from EHAM Reporting Station
Broken Clouds Broken Clouds  
Wind Chill: 48°   Ceiling: 3200
Heat Index: 48°   Visibility: 6mi
Dew Point: 46°   Wind: 3mph
Humidity: 93%   Direction: 210°SSW
Pressure: 30.15"   Gusts: NA
Location:  52.07°N, 5.2°E
Report Text: EHAM 222125Z 21003KT 150V300 9999 BKN032 09/08 Q1021 NOSIG
Loading
Personal Weather Stations






























Interactive Weather Map
Tropical Storm Tracking
New forecast layout! Learn more

10-Day Weather Forecast

Advertisements
Track Severe Weather on mobile